Wall Township, New Jersey
Current Conditions -  °F | °C
As of 4:15 PM on Tuesday 21 Oct 2014 (Local Time) from KBLM Reporting Station
Broken Clouds Broken Clouds  
Wind Chill: 61°   Ceiling: 8500
Heat Index: 61°   Visibility: 10mi
Dew Point: 54°   Wind: 6mph
Humidity: 77%   Direction: 90°E
Pressure: 29.82"   Gusts: NA
Location:  40.1528°N, 74.0364°W
Report Text: KBLM 212015Z AUTO 09005KT 10SM FEW039 SCT060 BKN085 16/12 A2982 RMK AO1 LTG DSNT S
Loading
Personal Weather Stations






























Interactive Weather Map
Tropical Storm Tracking
New forecast layout! Learn more

10-Day Weather Forecast

Advertisements
Track Severe Weather on mobile